createdAt,value
2018-08-27T00:00:40.475Z,7.72
2018-08-27T00:01:40.122Z,7.72
2018-08-27T00:02:40.080Z,7.73
2018-08-27T00:03:40.125Z,7.69
2018-08-27T00:04:40.218Z,7.69
2018-08-27T00:05:40.320Z,7.71
2018-08-27T00:06:40.098Z,7.71
2018-08-27T00:07:40.391Z,7.63
2018-08-27T00:08:40.348Z,7.65
2018-08-27T00:09:40.187Z,7.69
2018-08-27T00:10:40.271Z,7.65
2018-08-27T00:11:40.098Z,7.64
2018-08-27T00:12:40.140Z,7.71
2018-08-27T00:13:40.125Z,7.64
2018-08-27T00:14:40.121Z,7.66
2018-08-27T00:15:40.212Z,7.61
2018-08-27T00:16:40.135Z,7.69
2018-08-27T00:17:40.352Z,7.63
2018-08-27T00:18:40.150Z,7.76
2018-08-27T00:19:40.127Z,7.71
2018-08-27T00:20:40.141Z,7.69
2018-08-27T00:21:40.247Z,7.72
2018-08-27T00:22:40.210Z,7.74
2018-08-27T00:23:40.144Z,7.66
2018-08-27T00:24:40.123Z,7.66
2018-08-27T00:25:40.137Z,7.71
2018-08-27T00:26:40.176Z,7.69
2018-08-27T00:27:40.211Z,7.7
2018-08-27T00:28:40.147Z,7.72
2018-08-27T00:29:40.295Z,7.67
2018-08-27T00:30:40.135Z,7.76
2018-08-27T00:31:40.207Z,7.75
2018-08-27T00:32:40.161Z,7.72
2018-08-27T00:33:40.600Z,7.76
2018-08-27T00:34:40.181Z,7.74
2018-08-27T00:35:40.267Z,7.74
2018-08-27T00:36:40.121Z,7.77
2018-08-27T00:37:40.374Z,7.72
2018-08-27T00:38:40.208Z,7.79
2018-08-27T00:39:40.171Z,7.72
2018-08-27T00:40:40.264Z,7.69
2018-08-27T00:41:40.144Z,7.76
2018-08-27T00:42:40.299Z,7.74
2018-08-27T00:43:40.174Z,7.75
2018-08-27T00:44:40.147Z,7.66
2018-08-27T00:45:40.173Z,7.68
2018-08-27T00:46:40.914Z,7.69
2018-08-27T00:47:40.222Z,7.71
2018-08-27T00:48:40.159Z,7.64
2018-08-27T00:49:40.226Z,7.7
2018-08-27T00:50:40.219Z,7.67
2018-08-27T00:51:40.166Z,7.7
2018-08-27T00:52:40.221Z,7.67
2018-08-27T00:53:40.310Z,7.69
2018-08-27T00:54:40.518Z,7.76
2018-08-27T00:55:40.223Z,7.66
2018-08-27T00:56:40.151Z,7.72
2018-08-27T00:57:40.225Z,7.68
2018-08-27T00:58:40.172Z,7.69
2018-08-27T00:59:40.183Z,7.74
2018-08-27T01:00:40.499Z,7.68
2018-08-27T01:01:40.221Z,7.69
2018-08-27T01:02:40.175Z,7.63
2018-08-27T01:03:40.152Z,7.71
2018-08-27T01:04:40.189Z,7.63
2018-08-27T01:05:40.182Z,7.73
2018-08-27T01:06:40.153Z,7.67
2018-08-27T01:07:40.194Z,7.71
2018-08-27T01:08:40.213Z,7.68
2018-08-27T01:09:40.176Z,7.72
2018-08-27T01:10:40.186Z,7.75
2018-08-27T01:11:40.173Z,7.75
2018-08-27T01:12:40.165Z,7.71
2018-08-27T01:13:40.161Z,7.69
2018-08-27T01:14:40.201Z,7.79
2018-08-27T01:15:40.191Z,7.71
2018-08-27T01:16:40.182Z,7.7
2018-08-27T01:17:40.243Z,7.76
2018-08-27T01:18:40.204Z,7.77
2018-08-27T01:19:40.235Z,7.74
2018-08-27T01:20:40.367Z,7.7
2018-08-27T01:21:40.206Z,7.74
2018-08-27T01:22:41.159Z,7.71
2018-08-27T01:23:40.223Z,7.66
2018-08-27T01:24:40.377Z,7.66
2018-08-27T01:25:40.385Z,7.66
2018-08-27T01:26:40.206Z,7.65
2018-08-27T01:27:40.182Z,7.66
2018-08-27T01:28:40.215Z,7.73
2018-08-27T01:29:40.274Z,7.68
2018-08-27T01:30:40.208Z,7.66
2018-08-27T01:31:40.221Z,7.64
2018-08-27T01:32:40.403Z,7.66
2018-08-27T01:33:40.609Z,7.68
2018-08-27T01:34:40.361Z,7.64
2018-08-27T01:35:40.199Z,7.65
2018-08-27T01:36:40.514Z,7.68
2018-08-27T01:37:40.197Z,7.69
2018-08-27T01:38:40.221Z,7.69
2018-08-27T01:39:40.270Z,7.64
2018-08-27T01:40:40.323Z,7.62
2018-08-27T01:41:40.330Z,7.67
2018-08-27T01:42:40.248Z,7.62
2018-08-27T01:43:40.225Z,7.65
2018-08-27T01:44:40.251Z,7.65
2018-08-27T01:45:40.547Z,7.64
2018-08-27T01:46:40.398Z,7.66
2018-08-27T01:47:40.359Z,7.66
2018-08-27T01:48:40.466Z,7.66
2018-08-27T01:49:40.266Z,7.62
2018-08-27T01:50:40.252Z,7.6
2018-08-27T01:51:40.233Z,7.57
2018-08-27T01:52:40.317Z,7.62
2018-08-27T01:53:40.212Z,7.66
2018-08-27T01:54:40.248Z,7.6
2018-08-27T01:55:40.545Z,7.6
2018-08-27T01:56:40.636Z,7.64
2018-08-27T01:57:40.217Z,7.68
2018-08-27T01:58:40.326Z,7.65
2018-08-27T01:59:40.376Z,7.63
2018-08-27T02:00:40.224Z,7.62
2018-08-27T02:01:40.274Z,7.63
2018-08-27T02:02:40.232Z,7.63
2018-08-27T02:03:40.567Z,7.67
2018-08-27T02:04:40.332Z,7.7
2018-08-27T02:05:40.508Z,7.62
2018-08-27T02:06:40.260Z,7.66
2018-08-27T02:07:40.295Z,7.65
2018-08-27T02:08:40.342Z,7.62
2018-08-27T02:09:40.407Z,7.62
2018-08-27T02:10:40.406Z,7.63
2018-08-27T02:11:40.241Z,7.62
2018-08-27T02:12:40.362Z,7.61
2018-08-27T02:13:40.300Z,7.65
2018-08-27T02:14:40.303Z,7.64
2018-08-27T02:15:40.287Z,7.68
2018-08-27T02:16:40.260Z,7.66
2018-08-27T02:17:40.275Z,7.67
2018-08-27T02:18:40.259Z,7.69
2018-08-27T02:19:40.251Z,7.69
2018-08-27T02:20:40.317Z,7.66
2018-08-27T02:21:40.298Z,7.67
2018-08-27T02:22:40.301Z,7.68
2018-08-27T02:23:40.239Z,7.66
2018-08-27T02:24:40.307Z,7.73
2018-08-27T02:25:40.254Z,7.73
2018-08-27T02:26:40.272Z,7.7
2018-08-27T02:27:40.269Z,7.69
2018-08-27T02:28:40.335Z,7.73
2018-08-27T02:29:40.638Z,7.69
2018-08-27T02:30:40.310Z,7.74
2018-08-27T02:31:40.308Z,7.67
2018-08-27T02:32:40.293Z,7.74
2018-08-27T02:33:40.724Z,7.7
2018-08-27T02:34:40.298Z,7.73
2018-08-27T02:35:40.295Z,7.71
2018-08-27T02:36:40.382Z,7.69
2018-08-27T02:37:40.388Z,7.68
2018-08-27T02:38:40.269Z,7.69
2018-08-27T02:39:40.754Z,7.67
2018-08-27T02:40:40.341Z,7.66
2018-08-27T02:41:40.313Z,7.68
2018-08-27T02:42:40.427Z,7.69
2018-08-27T02:43:40.294Z,7.72
2018-08-27T02:44:40.408Z,7.64
2018-08-27T02:45:40.417Z,7.69
2018-08-27T02:46:40.337Z,7.68
2018-08-27T02:47:40.471Z,7.68
2018-08-27T02:48:40.378Z,7.65
2018-08-27T02:49:40.598Z,7.6
2018-08-27T02:50:40.475Z,7.67
2018-08-27T02:51:40.330Z,7.62
2018-08-27T02:52:40.332Z,7.66
2018-08-27T02:53:40.371Z,7.64
2018-08-27T02:54:40.301Z,7.62
2018-08-27T02:55:40.505Z,7.67
2018-08-27T02:56:40.380Z,7.63
2018-08-27T02:57:40.283Z,7.68
2018-08-27T02:58:40.369Z,7.64
2018-08-27T02:59:40.638Z,7.68
2018-08-27T03:00:40.469Z,7.67
2018-08-27T03:01:40.362Z,7.69
2018-08-27T03:02:40.492Z,7.71
2018-08-27T03:03:40.350Z,7.67
2018-08-27T03:04:40.519Z,7.64
2018-08-27T03:05:40.350Z,7.7
2018-08-27T03:06:40.328Z,7.65
2018-08-27T03:07:40.487Z,7.65
2018-08-27T03:08:40.455Z,7.66
2018-08-27T03:09:40.504Z,7.66
2018-08-27T03:10:40.621Z,7.67
2018-08-27T03:11:40.422Z,7.67
2018-08-27T03:12:40.373Z,7.63
2018-08-27T03:13:40.327Z,7.7
2018-08-27T03:14:40.334Z,7.68
2018-08-27T03:15:40.492Z,7.7
2018-08-27T03:16:40.512Z,7.67
2018-08-27T03:17:40.413Z,7.7
2018-08-27T03:18:40.319Z,7.68
2018-08-27T03:19:40.644Z,7.67
2018-08-27T03:20:40.545Z,7.66
2018-08-27T03:21:40.333Z,7.71
2018-08-27T03:22:40.354Z,7.74
2018-08-27T03:23:40.370Z,7.64
2018-08-27T03:24:40.381Z,7.65
2018-08-27T03:25:40.327Z,7.65
2018-08-27T03:26:40.360Z,7.73
2018-08-27T03:27:40.372Z,7.71
2018-08-27T03:28:40.330Z,7.67
2018-08-27T03:29:40.348Z,7.7
2018-08-27T03:30:40.366Z,7.66
2018-08-27T03:31:40.366Z,7.67
2018-08-27T03:32:40.355Z,7.67
2018-08-27T03:33:40.378Z,7.66
2018-08-27T03:34:40.372Z,7.65
2018-08-27T03:35:40.325Z,7.7
2018-08-27T03:36:40.359Z,7.65
2018-08-27T03:37:40.339Z,7.68
2018-08-27T03:38:40.361Z,7.66
2018-08-27T03:39:40.418Z,7.66
2018-08-27T03:40:40.794Z,7.64
2018-08-27T03:41:40.400Z,7.66
2018-08-27T03:42:40.367Z,7.61
2018-08-27T03:43:40.387Z,7.62
2018-08-27T03:44:40.370Z,7.61
2018-08-27T03:45:40.345Z,7.64
2018-08-27T03:46:40.351Z,7.64
2018-08-27T03:47:40.373Z,7.61
2018-08-27T03:48:41.479Z,7.65
2018-08-27T03:49:40.674Z,7.63
2018-08-27T03:50:40.384Z,7.61
2018-08-27T03:51:40.453Z,7.61
2018-08-27T03:52:40.361Z,7.64
2018-08-27T03:53:40.571Z,7.6
2018-08-27T03:54:40.526Z,7.62
2018-08-27T03:55:40.376Z,7.62
2018-08-27T03:56:40.452Z,7.61
2018-08-27T03:57:40.527Z,7.63
2018-08-27T03:58:40.387Z,7.64
2018-08-27T03:59:40.449Z,7.63
2018-08-27T04:00:40.463Z,7.59
2018-08-27T04:01:40.381Z,7.65
2018-08-27T04:02:40.421Z,7.61
2018-08-27T04:03:40.877Z,7.63
2018-08-27T04:04:40.526Z,7.67
2018-08-27T04:05:40.544Z,7.69
2018-08-27T04:06:40.401Z,7.64
2018-08-27T04:07:40.936Z,7.64
2018-08-27T04:08:40.410Z,7.61
2018-08-27T04:09:40.585Z,7.65
2018-08-27T04:10:40.424Z,7.63
2018-08-27T04:11:40.394Z,7.63
2018-08-27T04:12:40.552Z,7.64
2018-08-27T04:13:40.399Z,7.67
2018-08-27T04:14:40.393Z,7.69
2018-08-27T04:15:40.668Z,7.66
2018-08-27T04:16:40.589Z,7.66
2018-08-27T04:17:40.375Z,7.7
2018-08-27T04:18:40.398Z,7.66
2018-08-27T04:19:40.622Z,7.67
2018-08-27T04:20:40.728Z,7.66
2018-08-27T04:21:40.467Z,7.64
2018-08-27T04:22:40.539Z,7.7
2018-08-27T04:23:40.397Z,7.65
2018-08-27T04:24:40.398Z,7.67
2018-08-27T04:25:40.431Z,7.69
2018-08-27T04:26:40.395Z,7.68
2018-08-27T04:27:40.389Z,7.69
2018-08-27T04:28:40.731Z,7.71
2018-08-27T04:29:40.738Z,7.65
2018-08-27T04:30:41.235Z,7.72
2018-08-27T04:31:40.477Z,7.69
2018-08-27T04:32:40.583Z,7.71
2018-08-27T04:33:40.440Z,7.72
2018-08-27T04:34:40.632Z,7.77
2018-08-27T04:35:40.582Z,7.7
2018-08-27T04:36:40.659Z,7.67
2018-08-27T04:37:40.510Z,7.66
2018-08-27T04:38:40.446Z,7.69
2018-08-27T04:39:40.541Z,7.71
2018-08-27T04:40:40.437Z,7.71
2018-08-27T04:41:40.889Z,7.68
2018-08-27T04:42:41.790Z,7.74
2018-08-27T04:43:40.473Z,7.75
2018-08-27T04:44:40.574Z,7.72
2018-08-27T04:45:40.443Z,7.72
2018-08-27T04:46:40.561Z,7.74
2018-08-27T04:47:40.529Z,7.72
2018-08-27T04:48:40.465Z,7.71
2018-08-27T04:49:40.994Z,7.73
2018-08-27T04:50:40.467Z,7.76
2018-08-27T04:51:40.451Z,7.8
2018-08-27T04:52:40.461Z,7.74
2018-08-27T04:53:40.489Z,7.75
2018-08-27T04:54:40.620Z,7.73
2018-08-27T04:55:40.457Z,7.83
2018-08-27T04:56:40.479Z,7.76
2018-08-27T04:57:40.650Z,7.74
2018-08-27T04:58:40.697Z,7.76
2018-08-27T04:59:40.558Z,7.76
2018-08-27T05:00:40.486Z,7.78
2018-08-27T05:01:40.480Z,7.73
2018-08-27T05:02:40.460Z,7.71
2018-08-27T05:03:40.488Z,7.71
2018-08-27T05:04:40.517Z,7.75
2018-08-27T05:05:40.520Z,7.73
2018-08-27T05:06:40.510Z,7.8
2018-08-27T05:07:40.500Z,7.77
2018-08-27T05:08:40.561Z,7.78
2018-08-27T05:09:40.454Z,7.76
2018-08-27T05:10:40.437Z,7.78
2018-08-27T05:11:40.500Z,7.83
2018-08-27T05:12:40.844Z,7.79
2018-08-27T05:13:40.488Z,7.75
2018-08-27T05:14:40.523Z,7.81
2018-08-27T05:15:40.674Z,7.78
2018-08-27T05:16:40.568Z,7.77
2018-08-27T05:17:42.292Z,7.79
2018-08-27T05:18:40.633Z,7.82
2018-08-27T05:19:40.802Z,7.83
2018-08-27T05:20:40.714Z,7.8
2018-08-27T05:21:40.467Z,7.81
2018-08-27T05:22:40.493Z,7.81
2018-08-27T05:23:41.058Z,7.85
2018-08-27T05:24:40.533Z,7.78
2018-08-27T05:25:40.810Z,7.78
2018-08-27T05:26:40.678Z,7.81
2018-08-27T05:27:40.552Z,7.76
2018-08-27T05:28:40.552Z,7.76
2018-08-27T05:29:40.910Z,7.79
2018-08-27T05:30:41.581Z,7.83
2018-08-27T05:31:40.558Z,7.8
2018-08-27T05:32:40.633Z,7.89
2018-08-27T05:33:40.560Z,7.83
2018-08-27T05:34:40.950Z,7.83
2018-08-27T05:35:40.717Z,7.8
2018-08-27T05:36:41.055Z,7.81
2018-08-27T05:37:40.586Z,7.8
2018-08-27T05:38:41.727Z,7.83
2018-08-27T05:39:40.536Z,7.8
2018-08-27T05:40:40.673Z,7.8
2018-08-27T05:41:40.547Z,7.78
2018-08-27T05:42:40.492Z,7.82
2018-08-27T05:43:40.621Z,7.83
2018-08-27T05:44:41.112Z,7.8
2018-08-27T05:45:40.584Z,7.81
2018-08-27T05:46:40.691Z,7.84
2018-08-27T05:47:40.800Z,7.79
2018-08-27T05:48:40.498Z,7.78
2018-08-27T05:49:40.558Z,7.8
2018-08-27T05:50:40.653Z,7.83
2018-08-27T05:51:40.513Z,7.81
2018-08-27T05:52:40.815Z,7.8
2018-08-27T05:53:40.602Z,7.78
2018-08-27T05:54:40.979Z,7.79
2018-08-27T05:55:41.053Z,7.81
2018-08-27T05:56:40.550Z,7.82
2018-08-27T05:57:40.852Z,7.74
2018-08-27T05:58:40.740Z,7.75
2018-08-27T05:59:40.533Z,7.77
2018-08-27T06:00:40.680Z,7.85
2018-08-27T06:01:41.630Z,7.83
2018-08-27T06:02:40.544Z,7.87
2018-08-27T06:03:40.605Z,7.9
2018-08-27T06:04:41.457Z,7.87
2018-08-27T06:05:40.968Z,7.87
2018-08-27T06:06:40.618Z,7.89
2018-08-27T06:07:40.557Z,7.87
2018-08-27T06:08:40.622Z,7.88
2018-08-27T06:09:40.836Z,7.92
2018-08-27T06:10:40.956Z,7.88
2018-08-27T06:11:40.714Z,7.88
2018-08-27T06:12:40.598Z,7.87
2018-08-27T06:13:40.563Z,7.93
2018-08-27T06:14:40.548Z,7.92
2018-08-27T06:15:42.386Z,7.93
2018-08-27T06:16:41.592Z,7.89
2018-08-27T06:17:40.726Z,7.92
2018-08-27T06:18:40.624Z,7.89
2018-08-27T06:19:40.593Z,7.92
2018-08-27T06:20:40.632Z,7.96
2018-08-27T06:21:40.575Z,7.99
2018-08-27T06:22:40.555Z,7.92
2018-08-27T06:23:40.551Z,7.88
2018-08-27T06:24:40.533Z,7.91
2018-08-27T06:25:41.395Z,7.88
2018-08-27T06:26:40.540Z,7.89
2018-08-27T06:27:40.870Z,7.9
2018-08-27T06:28:40.712Z,7.89
2018-08-27T06:29:40.718Z,7.91
2018-08-27T06:30:40.599Z,7.91
2018-08-27T06:31:40.548Z,7.94
2018-08-27T06:32:40.564Z,7.91
2018-08-27T06:33:40.604Z,7.95
2018-08-27T06:34:40.563Z,8.02
2018-08-27T06:35:40.920Z,8.17
2018-08-27T06:36:40.555Z,8.22
2018-08-27T06:37:40.828Z,8.26
2018-08-27T06:38:40.574Z,8.26
2018-08-27T06:39:41.686Z,8.41
2018-08-27T06:40:40.642Z,8.57
2018-08-27T06:41:40.892Z,8.53
2018-08-27T06:42:40.616Z,8.61
2018-08-27T06:43:40.910Z,8.45
2018-08-27T06:44:40.624Z,8.44
2018-08-27T06:45:40.608Z,8.39
2018-08-27T06:46:40.600Z,8.32
2018-08-27T06:47:40.731Z,8.56
2018-08-27T06:48:40.605Z,8.51
2018-08-27T06:49:41.153Z,8.61
2018-08-27T06:50:40.645Z,8.56
2018-08-27T06:51:40.628Z,8.53
2018-08-27T06:52:41.041Z,8.67
2018-08-27T06:53:40.586Z,8.74
2018-08-27T06:54:40.696Z,8.76
2018-08-27T06:55:40.581Z,8.62
2018-08-27T06:56:41.235Z,8.77
2018-08-27T06:57:40.656Z,8.92
2018-08-27T06:58:40.981Z,8.75
2018-08-27T06:59:40.596Z,8.75
2018-08-27T07:00:40.929Z,8.78
2018-08-27T07:01:40.604Z,8.93
2018-08-27T07:02:40.810Z,8.85
2018-08-27T07:03:41.181Z,9.26
2018-08-27T07:04:40.779Z,9.39
2018-08-27T07:05:40.610Z,8.9
2018-08-27T07:06:41.480Z,8.68
2018-08-27T07:07:41.129Z,8.81
2018-08-27T07:08:40.643Z,8.77
2018-08-27T07:09:41.080Z,8.78
2018-08-27T07:10:40.606Z,9.18
2018-08-27T07:11:41.132Z,9
2018-08-27T07:12:40.632Z,8.96
2018-08-27T07:13:40.642Z,9.07
2018-08-27T07:14:41.122Z,9.02
2018-08-27T07:15:40.818Z,9
2018-08-27T07:16:40.773Z,8.96
2018-08-27T07:17:40.677Z,8.99
2018-08-27T07:18:40.617Z,9.06
2018-08-27T07:19:40.873Z,9.14
2018-08-27T07:20:40.601Z,9.25
2018-08-27T07:21:40.731Z,9.32
2018-08-27T07:22:40.766Z,9.45
2018-08-27T07:23:40.970Z,9.32
2018-08-27T07:24:40.608Z,9.36
2018-08-27T07:25:40.621Z,9.22
2018-08-27T07:26:40.664Z,9.24
2018-08-27T07:27:40.686Z,9.32
2018-08-27T07:28:40.834Z,9.31
2018-08-27T07:29:40.626Z,9.29
2018-08-27T07:30:41.038Z,9.35
2018-08-27T07:31:40.688Z,9.31
2018-08-27T07:32:40.969Z,9.36
2018-08-27T07:33:40.644Z,9.44
2018-08-27T07:34:41.023Z,9.6
2018-08-27T07:35:41.396Z,9.6
2018-08-27T07:36:42.104Z,9.38
2018-08-27T07:37:40.619Z,9.51
2018-08-27T07:38:40.627Z,9.44
2018-08-27T07:39:40.648Z,9.45
2018-08-27T07:40:40.649Z,9.56
2018-08-27T07:41:40.652Z,9.58
2018-08-27T07:42:40.814Z,9.72
2018-08-27T07:43:42.271Z,9.65
2018-08-27T07:44:40.701Z,9.64
2018-08-27T07:45:40.824Z,9.57
2018-08-27T07:46:40.730Z,9.63
2018-08-27T07:47:41.963Z,9.51
2018-08-27T07:48:41.276Z,9.66
2018-08-27T07:49:40.610Z,9.65
2018-08-27T07:50:41.294Z,9.62
2018-08-27T07:51:41.028Z,9.6
2018-08-27T07:52:40.929Z,9.56
2018-08-27T07:53:40.656Z,9.59
2018-08-27T07:54:40.668Z,9.63
2018-08-27T07:55:40.740Z,9.64
2018-08-27T07:56:40.803Z,9.58
2018-08-27T07:57:40.649Z,9.7
2018-08-27T07:58:40.983Z,9.72
2018-08-27T07:59:40.827Z,9.7
2018-08-27T08:00:40.620Z,9.77
2018-08-27T08:01:40.686Z,9.72
2018-08-27T08:02:41.013Z,9.71
2018-08-27T08:03:40.735Z,9.84
2018-08-27T08:04:41.731Z,9.64
2018-08-27T08:05:40.645Z,9.65
2018-08-27T08:06:40.803Z,9.63
2018-08-27T08:07:40.704Z,9.71
2018-08-27T08:08:40.672Z,9.75
2018-08-27T08:09:40.840Z,9.8
2018-08-27T08:10:40.677Z,9.94
2018-08-27T08:11:41.945Z,9.87
2018-08-27T08:12:40.657Z,9.85
2018-08-27T08:13:40.882Z,9.86
2018-08-27T08:14:41.184Z,9.78
2018-08-27T08:15:40.680Z,9.89
2018-08-27T08:16:40.734Z,9.83
2018-08-27T08:17:40.725Z,9.79
2018-08-27T08:18:40.846Z,9.75
2018-08-27T08:19:40.665Z,9.71
2018-08-27T08:20:40.847Z,9.62
2018-08-27T08:21:40.843Z,9.89
2018-08-27T08:22:40.941Z,9.73
2018-08-27T08:23:40.846Z,9.7
2018-08-27T08:24:40.658Z,9.63
2018-08-27T08:25:42.153Z,9.63
2018-08-27T08:26:40.745Z,9.57
2018-08-27T08:27:41.960Z,9.66
2018-08-27T08:28:41.173Z,9.7
2018-08-27T08:29:41.092Z,9.55
2018-08-27T08:30:41.293Z,9.3
2018-08-27T08:31:40.702Z,9.27
2018-08-27T08:32:40.843Z,9.26
2018-08-27T08:33:40.697Z,9.36
2018-08-27T08:34:40.830Z,9.33
2018-08-27T08:35:40.769Z,9.44
2018-08-27T08:36:41.664Z,9.52
2018-08-27T08:37:40.731Z,9.6
2018-08-27T08:38:40.741Z,9.67
2018-08-27T08:39:41.058Z,9.55
2018-08-27T08:40:41.366Z,9.5
2018-08-27T08:41:40.718Z,9.41
2018-08-27T08:42:40.706Z,9.47
2018-08-27T08:43:41.027Z,9.38
2018-08-27T08:44:41.080Z,9.45
2018-08-27T08:45:41.553Z,9.43
2018-08-27T08:46:41.017Z,9.54
2018-08-27T08:47:40.769Z,9.36
2018-08-27T08:48:40.711Z,9.29
2018-08-27T08:49:40.834Z,9.19
2018-08-27T08:50:40.803Z,9.05
2018-08-27T08:51:40.855Z,9.13
2018-08-27T08:52:41.035Z,9.14
2018-08-27T08:53:41.055Z,9.15
2018-08-27T08:54:40.710Z,9.32
2018-08-27T08:55:40.764Z,8.98
2018-08-27T08:56:40.884Z,9.01
2018-08-27T08:57:40.861Z,8.9
2018-08-27T08:58:40.737Z,9.09
2018-08-27T08:59:40.715Z,9.26
2018-08-27T09:00:41.116Z,9.21
2018-08-27T09:01:41.270Z,9.25
2018-08-27T09:02:41.342Z,9.15
2018-08-27T09:03:40.862Z,9.18
2018-08-27T09:04:40.917Z,9.14
2018-08-27T09:05:42.755Z,9.2
2018-08-27T09:06:40.860Z,9.37
2018-08-27T09:07:40.936Z,9.4
2018-08-27T09:08:41.454Z,9.12
2018-08-27T09:09:40.901Z,9.03
2018-08-27T09:10:41.728Z,9.01
2018-08-27T09:11:40.725Z,9
2018-08-27T09:12:40.721Z,9.15
2018-08-27T09:13:40.726Z,8.89
2018-08-27T09:14:40.734Z,9
2018-08-27T09:15:40.841Z,8.99
2018-08-27T09:16:41.142Z,8.99
2018-08-27T09:17:41.726Z,9.02
2018-08-27T09:18:40.746Z,9.08
2018-08-27T09:19:40.790Z,9.09
2018-08-27T09:20:40.886Z,9.07
2018-08-27T09:21:40.815Z,9.06
2018-08-27T09:22:40.949Z,8.91
2018-08-27T09:23:41.534Z,8.87
2018-08-27T09:24:41.564Z,8.93
2018-08-27T09:25:40.755Z,8.9
2018-08-27T09:26:40.803Z,8.86
2018-08-27T09:27:41.182Z,9.19
2018-08-27T09:28:40.761Z,9.02
2018-08-27T09:29:40.961Z,9.44
2018-08-27T09:30:40.861Z,9.37
2018-08-27T09:31:41.131Z,9.47
2018-08-27T09:32:41.199Z,9.31
2018-08-27T09:33:40.735Z,9.35
2018-08-27T09:34:40.854Z,9.47
2018-08-27T09:35:40.789Z,9.59
2018-08-27T09:36:40.823Z,9.69
2018-08-27T09:37:41.364Z,9.48
2018-08-27T09:38:40.844Z,9.63
2018-08-27T09:39:40.825Z,9.6
2018-08-27T09:40:41.083Z,9.52
2018-08-27T09:41:42.456Z,9.51
2018-08-27T09:42:40.851Z,9.41
2018-08-27T09:43:41.114Z,9.47
2018-08-27T09:44:41.247Z,9.53
2018-08-27T09:45:40.829Z,9.54
2018-08-27T09:46:41.068Z,9.43
2018-08-27T09:47:40.809Z,9.43
2018-08-27T09:48:40.806Z,9.4
2018-08-27T09:49:40.787Z,9.38
2018-08-27T09:50:40.822Z,9.39
2018-08-27T09:51:40.899Z,9.45
2018-08-27T09:52:41.258Z,9.36
2018-08-27T09:53:41.077Z,9.32
2018-08-27T09:54:40.788Z,9.32
2018-08-27T09:55:40.803Z,9.36
2018-08-27T09:56:40.960Z,9.41
2018-08-27T09:57:40.806Z,9.45
2018-08-27T09:58:41.306Z,9.47
2018-08-27T09:59:40.773Z,9.64
2018-08-27T10:00:41.102Z,9.85
2018-08-27T10:01:40.784Z,10.04
2018-08-27T10:02:40.911Z,10.06
2018-08-27T10:03:40.803Z,10.16
2018-08-27T10:04:41.136Z,10.15
2018-08-27T10:05:40.786Z,10.32
2018-08-27T10:06:40.789Z,10.23
2018-08-27T10:07:40.763Z,10.3
2018-08-27T10:08:40.820Z,10.32
2018-08-27T10:09:40.833Z,10.33
2018-08-27T10:10:41.180Z,10.26
2018-08-27T10:11:40.778Z,10.29
2018-08-27T10:12:40.984Z,10.27
2018-08-27T10:13:40.941Z,10.3
2018-08-27T10:14:40.781Z,10.38
2018-08-27T10:15:40.859Z,10.43
2018-08-27T10:16:40.865Z,10.36
2018-08-27T10:17:40.802Z,10.4
2018-08-27T10:18:41.206Z,10.28
2018-08-27T10:19:40.885Z,10.16
2018-08-27T10:20:40.956Z,10.26
2018-08-27T10:21:41.033Z,10
2018-08-27T10:22:41.749Z,9.93
2018-08-27T10:23:40.874Z,9.82
2018-08-27T10:24:40.854Z,9.89
2018-08-27T10:25:40.830Z,9.72
2018-08-27T10:26:40.895Z,9.76
2018-08-27T10:27:40.811Z,9.73
2018-08-27T10:28:40.848Z,9.75
2018-08-27T10:29:41.216Z,9.73
2018-08-27T10:30:40.807Z,9.65
2018-08-27T10:31:41.049Z,9.73
2018-08-27T10:32:41.139Z,9.74
2018-08-27T10:33:41.220Z,9.76
2018-08-27T10:34:40.924Z,9.68
2018-08-27T10:35:41.031Z,9.66
2018-08-27T10:36:40.847Z,9.65
2018-08-27T10:37:40.862Z,9.62
2018-08-27T10:38:40.865Z,9.67
2018-08-27T10:39:40.885Z,9.61
2018-08-27T10:40:40.818Z,9.62
2018-08-27T10:41:40.900Z,9.69
2018-08-27T10:42:41.206Z,9.51
2018-08-27T10:43:40.809Z,9.59
2018-08-27T10:44:41.299Z,9.59
2018-08-27T10:45:40.946Z,9.6
2018-08-27T10:46:40.844Z,9.62
2018-08-27T10:47:41.144Z,9.61
2018-08-27T10:48:40.878Z,9.61
2018-08-27T10:49:40.963Z,9.62
2018-08-27T10:50:40.900Z,9.63
2018-08-27T10:51:41.100Z,9.66
2018-08-27T10:52:41.004Z,9.67
2018-08-27T10:53:40.861Z,9.64
2018-08-27T10:54:40.876Z,9.68
2018-08-27T10:55:41.113Z,9.65
2018-08-27T10:56:40.861Z,9.75
2018-08-27T10:57:41.035Z,9.66
2018-08-27T10:58:40.986Z,9.71
2018-08-27T10:59:41.136Z,9.75
2018-08-27T11:00:40.972Z,9.78
2018-08-27T11:01:40.865Z,9.69
2018-08-27T11:02:41.209Z,9.7
2018-08-27T11:03:40.888Z,9.61
2018-08-27T11:04:41.147Z,9.54
2018-08-27T11:05:40.914Z,9.6
2018-08-27T11:06:40.939Z,9.58
2018-08-27T11:07:40.919Z,9.59
2018-08-27T11:08:40.953Z,9.65
2018-08-27T11:09:41.177Z,9.64
2018-08-27T11:10:41.401Z,9.64
2018-08-27T11:11:41.297Z,9.72
2018-08-27T11:12:41.398Z,9.76
2018-08-27T11:13:41.063Z,9.78
2018-08-27T11:14:40.952Z,9.84
2018-08-27T11:15:40.915Z,9.85
2018-08-27T11:16:40.885Z,9.85
2018-08-27T11:17:40.908Z,9.83
2018-08-27T11:18:40.864Z,9.86
2018-08-27T11:19:42.508Z,9.83
2018-08-27T11:20:42.274Z,9.87
2018-08-27T11:21:40.981Z,9.96
2018-08-27T11:22:40.905Z,10.1
2018-08-27T11:23:40.908Z,10.13
2018-08-27T11:24:40.895Z,10.14
2018-08-27T11:25:40.920Z,10.13
2018-08-27T11:26:43.490Z,10.14
2018-08-27T11:27:40.876Z,10.17
2018-08-27T11:28:41.048Z,10.27
2018-08-27T11:29:41.120Z,10.34
2018-08-27T11:30:40.930Z,10.38
2018-08-27T11:31:40.912Z,10.46
2018-08-27T11:32:40.934Z,10.48
2018-08-27T11:33:40.908Z,10.47
2018-08-27T11:34:40.902Z,10.7
2018-08-27T11:35:41.691Z,10.68
2018-08-27T11:36:41.102Z,10.73
2018-08-27T11:37:41.583Z,10.69
2018-08-27T11:38:40.955Z,10.77
2018-08-27T11:39:41.174Z,10.89
2018-08-27T11:40:40.931Z,10.77
2018-08-27T11:41:40.913Z,10.9
2018-08-27T11:42:42.148Z,10.74
2018-08-27T11:43:40.953Z,10.82
2018-08-27T11:44:41.207Z,10.8
2018-08-27T11:45:41.104Z,10.85
2018-08-27T11:46:40.916Z,10.75
2018-08-27T11:47:41.218Z,10.78
2018-08-27T11:48:40.984Z,10.92
2018-08-27T11:49:40.929Z,10.8
2018-08-27T11:50:42.484Z,10.84
2018-08-27T11:51:41.051Z,10.72
2018-08-27T11:52:40.999Z,10.76
2018-08-27T11:53:41.028Z,10.91
2018-08-27T11:54:40.963Z,10.91
2018-08-27T11:55:41.113Z,10.79
2018-08-27T11:56:42.008Z,10.81
2018-08-27T11:57:40.993Z,10.83
2018-08-27T11:58:41.694Z,11
2018-08-27T11:59:40.926Z,11.08
2018-08-27T12:00:41.186Z,11.16
2018-08-27T12:01:40.957Z,11.18
2018-08-27T12:02:41.462Z,11.17
2018-08-27T12:03:41.114Z,11.25
2018-08-27T12:04:40.936Z,11.14
2018-08-27T12:05:40.948Z,11.09
2018-08-27T12:06:41.022Z,11.1
2018-08-27T12:07:41.302Z,11.14
2018-08-27T12:08:40.956Z,11.04
2018-08-27T12:09:40.943Z,11.04
2018-08-27T12:10:40.938Z,11.01
2018-08-27T12:11:41.082Z,10.95
2018-08-27T12:12:41.404Z,10.9
2018-08-27T12:13:41.080Z,10.92
2018-08-27T12:14:41.077Z,10.95
2018-08-27T12:15:41.727Z,11.03
2018-08-27T12:16:41.420Z,10.98
2018-08-27T12:17:40.966Z,11.05
2018-08-27T12:18:41.251Z,11.04
2018-08-27T12:19:40.974Z,11.15
2018-08-27T12:20:41.078Z,10.97
2018-08-27T12:21:41.202Z,10.92
2018-08-27T12:22:41.006Z,10.84
2018-08-27T12:23:41.352Z,10.93
2018-08-27T12:24:41.165Z,10.97
2018-08-27T12:25:41.008Z,10.95
2018-08-27T12:26:41.135Z,10.93
2018-08-27T12:27:41.094Z,10.96
2018-08-27T12:28:41.110Z,10.94
2018-08-27T12:29:41.006Z,10.96
2018-08-27T12:30:41.292Z,10.93
2018-08-27T12:31:41.085Z,10.89
2018-08-27T12:32:41.059Z,11.02
2018-08-27T12:33:41.009Z,11.1
2018-08-27T12:34:40.965Z,10.99
2018-08-27T12:35:41.045Z,10.91
2018-08-27T12:36:41.023Z,10.97
2018-08-27T12:37:41.709Z,10.94
2018-08-27T12:38:41.288Z,10.97
2018-08-27T12:39:41.033Z,10.84
2018-08-27T12:40:42.500Z,10.78
2018-08-27T12:41:41.198Z,10.83
2018-08-27T12:42:40.978Z,10.88
2018-08-27T12:43:41.627Z,10.86
2018-08-27T12:44:40.971Z,10.97
2018-08-27T12:45:41.043Z,10.84
2018-08-27T12:46:40.956Z,10.88
2018-08-27T12:47:40.961Z,10.9
2018-08-27T12:48:40.980Z,10.87
2018-08-27T12:49:40.950Z,10.9
2018-08-27T12:50:41.341Z,10.88
2018-08-27T12:51:41.041Z,10.85
2018-08-27T12:52:40.996Z,10.82
2018-08-27T12:53:41.060Z,10.88
2018-08-27T12:54:41.013Z,10.97
2018-08-27T12:55:41.091Z,11
2018-08-27T12:56:40.969Z,11
2018-08-27T12:57:41.020Z,11.06
2018-08-27T12:58:41.489Z,11.01
2018-08-27T12:59:41.024Z,11.02
2018-08-27T13:00:40.978Z,10.98
2018-08-27T13:01:41.207Z,10.97
2018-08-27T13:02:41.111Z,11.03
2018-08-27T13:03:41.248Z,11.03
2018-08-27T13:04:41.199Z,11.1
2018-08-27T13:05:41.816Z,11.11
2018-08-27T13:06:41.768Z,11.1
2018-08-27T13:07:41.709Z,11.14
2018-08-27T13:08:41.517Z,11.22
2018-08-27T13:09:41.120Z,11.26
2018-08-27T13:10:41.191Z,11.31
2018-08-27T13:11:41.792Z,11.37
2018-08-27T13:12:41.802Z,11.43
2018-08-27T13:13:41.221Z,11.45
2018-08-27T13:14:41.351Z,11.5
2018-08-27T13:15:42.242Z,11.45
2018-08-27T13:16:41.708Z,11.44
2018-08-27T13:17:41.113Z,11.43